sensor_id;sensor_type;location;lat;lon;timestamp;pressure;altitude;pressure_sealevel;temperature
67509;BMP280;54354;44.724;11.284;2022-08-14T00:00:50;101261.41;;;28.65
67509;BMP280;54354;44.724;11.284;2022-08-14T00:03:21;101260.81;;;28.59
67509;BMP280;54354;44.724;11.284;2022-08-14T00:05:47;101257.03;;;28.62
67509;BMP280;54354;44.724;11.284;2022-08-14T00:08:12;101262.47;;;28.62
67509;BMP280;54354;44.724;11.284;2022-08-14T00:10:38;101272.88;;;28.63
67509;BMP280;54354;44.724;11.284;2022-08-14T00:13:03;101259.56;;;28.60
67509;BMP280;54354;44.724;11.284;2022-08-14T00:15:33;101259.47;;;28.52
67509;BMP280;54354;44.724;11.284;2022-08-14T00:18:00;101246.91;;;28.49
67509;BMP280;54354;44.724;11.284;2022-08-14T00:20:29;101257.69;;;28.42
67509;BMP280;54354;44.724;11.284;2022-08-14T00:22:55;101253.16;;;28.44
67509;BMP280;54354;44.724;11.284;2022-08-14T00:25:20;101256.03;;;28.39
67509;BMP280;54354;44.724;11.284;2022-08-14T00:27:46;101254.13;;;28.33
67509;BMP280;54354;44.724;11.284;2022-08-14T00:30:13;101253.69;;;28.29
67509;BMP280;54354;44.724;11.284;2022-08-14T00:32:39;101253.25;;;28.25
67509;BMP280;54354;44.724;11.284;2022-08-14T00:35:06;101246.88;;;28.23
67509;BMP280;54354;44.724;11.284;2022-08-14T00:37:33;101252.00;;;28.26
67509;BMP280;54354;44.724;11.284;2022-08-14T00:40:00;101243.56;;;28.30
67509;BMP280;54354;44.724;11.284;2022-08-14T00:42:26;101249.72;;;28.30
67509;BMP280;54354;44.724;11.284;2022-08-14T00:44:52;101257.44;;;28.26
67509;BMP280;54354;44.724;11.284;2022-08-14T00:47:20;101251.38;;;28.20
67509;BMP280;54354;44.724;11.284;2022-08-14T00:49:50;101245.94;;;28.20
67509;BMP280;54354;44.724;11.284;2022-08-14T00:52:18;101239.56;;;28.18
67509;BMP280;54354;44.724;11.284;2022-08-14T00:54:46;101233.97;;;28.10
67509;BMP280;54354;44.724;11.284;2022-08-14T00:57:14;101241.94;;;28.08
67509;BMP280;54354;44.724;11.284;2022-08-14T00:59:40;101239.94;;;28.09
67509;BMP280;54354;44.724;11.284;2022-08-14T01:02:05;101236.81;;;28.05
67509;BMP280;54354;44.724;11.284;2022-08-14T01:04:34;101224.34;;;27.96
67509;BMP280;54354;44.724;11.284;2022-08-14T01:07:00;101217.94;;;27.93
67509;BMP280;54354;44.724;11.284;2022-08-14T01:09:28;101217.31;;;27.87
67509;BMP280;54354;44.724;11.284;2022-08-14T01:11:54;101218.34;;;27.84
67509;BMP280;54354;44.724;11.284;2022-08-14T01:14:21;101223.84;;;27.79
67509;BMP280;54354;44.724;11.284;2022-08-14T01:16:47;101221.47;;;27.75
67509;BMP280;54354;44.724;11.284;2022-08-14T01:19:13;101212.63;;;27.69
67509;BMP280;54354;44.724;11.284;2022-08-14T01:21:58;101218.41;;;27.65
67509;BMP280;54354;44.724;11.284;2022-08-14T01:24:24;101210.56;;;27.62
67509;BMP280;54354;44.724;11.284;2022-08-14T01:26:51;101213.28;;;27.62
67509;BMP280;54354;44.724;11.284;2022-08-14T01:29:18;101205.44;;;27.58
67509;BMP280;54354;44.724;11.284;2022-08-14T01:31:45;101206.25;;;27.53
67509;BMP280;54354;44.724;11.284;2022-08-14T01:34:11;101203.84;;;27.50
67509;BMP280;54354;44.724;11.284;2022-08-14T01:36:37;101194.69;;;27.47
67509;BMP280;54354;44.724;11.284;2022-08-14T01:39:09;101187.78;;;27.46
67509;BMP280;54354;44.724;11.284;2022-08-14T01:41:35;101184.03;;;27.49
67509;BMP280;54354;44.724;11.284;2022-08-14T01:44:03;101188.00;;;27.48
67509;BMP280;54354;44.724;11.284;2022-08-14T01:46:35;101182.88;;;27.45
67509;BMP280;54354;44.724;11.284;2022-08-14T01:49:04;101187.91;;;27.41
67509;BMP280;54354;44.724;11.284;2022-08-14T01:51:30;101187.34;;;27.42
67509;BMP280;54354;44.724;11.284;2022-08-14T01:53:59;101177.59;;;27.33
67509;BMP280;54354;44.724;11.284;2022-08-14T01:56:28;101173.72;;;27.29
67509;BMP280;54354;44.724;11.284;2022-08-14T01:59:28;101163.34;;;27.27
67509;BMP280;54354;44.724;11.284;2022-08-14T02:01:59;101166.38;;;27.24
67509;BMP280;54354;44.724;11.284;2022-08-14T02:04:31;101161.81;;;27.13
67509;BMP280;54354;44.724;11.284;2022-08-14T02:06:57;101166.53;;;27.13
67509;BMP280;54354;44.724;11.284;2022-08-14T02:09:23;101168.84;;;27.09
67509;BMP280;54354;44.724;11.284;2022-08-14T02:11:50;101162.00;;;27.02
67509;BMP280;54354;44.724;11.284;2022-08-14T02:14:16;101159.78;;;27.00
67509;BMP280;54354;44.724;11.284;2022-08-14T02:16:46;101161.13;;;26.94
67509;BMP280;54354;44.724;11.284;2022-08-14T02:19:17;101153.47;;;26.92
67509;BMP280;54354;44.724;11.284;2022-08-14T02:21:44;101159.44;;;26.91
67509;BMP280;54354;44.724;11.284;2022-08-14T02:24:11;101158.69;;;26.90
67509;BMP280;54354;44.724;11.284;2022-08-14T02:26:39;101151.84;;;26.84
67509;BMP280;54354;44.724;11.284;2022-08-14T02:29:11;101152.88;;;26.81
67509;BMP280;54354;44.724;11.284;2022-08-14T02:31:40;101142.53;;;26.79
67509;BMP280;54354;44.724;11.284;2022-08-14T02:34:21;101142.84;;;26.76
67509;BMP280;54354;44.724;11.284;2022-08-14T02:36:50;101138.63;;;26.74
67509;BMP280;54354;44.724;11.284;2022-08-14T02:39:16;101134.97;;;26.72
67509;BMP280;54354;44.724;11.284;2022-08-14T02:41:42;101138.44;;;26.72
67509;BMP280;54354;44.724;11.284;2022-08-14T02:44:10;101130.84;;;26.65
67509;BMP280;54354;44.724;11.284;2022-08-14T02:46:37;101135.53;;;26.65
67509;BMP280;54354;44.724;11.284;2022-08-14T02:49:03;101144.94;;;26.64
67509;BMP280;54354;44.724;11.284;2022-08-14T02:51:31;101142.00;;;26.62
67509;BMP280;54354;44.724;11.284;2022-08-14T02:53:56;101144.72;;;26.62
67509;BMP280;54354;44.724;11.284;2022-08-14T02:56:22;101136.88;;;26.58
67509;BMP280;54354;44.724;11.284;2022-08-14T02:58:54;101136.69;;;26.51
67509;BMP280;54354;44.724;11.284;2022-08-14T03:01:22;101129.81;;;26.50
67509;BMP280;54354;44.724;11.284;2022-08-14T03:03:48;101121.41;;;26.48
67509;BMP280;54354;44.724;11.284;2022-08-14T03:06:16;101120.47;;;26.45
67509;BMP280;54354;44.724;11.284;2022-08-14T03:08:42;101112.13;;;26.43
67509;BMP280;54354;44.724;11.284;2022-08-14T03:11:10;101098.09;;;26.39
67509;BMP280;54354;44.724;11.284;2022-08-14T03:13:38;101104.03;;;26.37
67509;BMP280;54354;44.724;11.284;2022-08-14T03:16:08;101099.09;;;26.36
67509;BMP280;54354;44.724;11.284;2022-08-14T03:18:33;101114.88;;;26.37
67509;BMP280;54354;44.724;11.284;2022-08-14T03:21:02;101102.13;;;26.32
67509;BMP280;54354;44.724;11.284;2022-08-14T03:23:28;101116.94;;;26.31
67509;BMP280;54354;44.724;11.284;2022-08-14T03:25:58;101115.97;;;26.29
67509;BMP280;54354;44.724;11.284;2022-08-14T03:28:25;101119.22;;;26.27
67509;BMP280;54354;44.724;11.284;2022-08-14T03:30:54;101122.44;;;26.26
67509;BMP280;54354;44.724;11.284;2022-08-14T03:33:20;101113.03;;;26.27
67509;BMP280;54354;44.724;11.284;2022-08-14T03:35:46;101108.84;;;26.26
67509;BMP280;54354;44.724;11.284;2022-08-14T03:38:12;101104.38;;;26.28
67509;BMP280;54354;44.724;11.284;2022-08-14T03:40:39;101099.25;;;26.25
67509;BMP280;54354;44.724;11.284;2022-08-14T03:43:06;101097.78;;;26.24
67509;BMP280;54354;44.724;11.284;2022-08-14T03:45:33;101100.28;;;26.22
67509;BMP280;54354;44.724;11.284;2022-08-14T03:48:08;101100.78;;;26.20
67509;BMP280;54354;44.724;11.284;2022-08-14T03:50:37;101106.63;;;26.24
67509;BMP280;54354;44.724;11.284;2022-08-14T03:53:03;101105.69;;;26.22
67509;BMP280;54354;44.724;11.284;2022-08-14T03:55:29;101095.34;;;26.20
67509;BMP280;54354;44.724;11.284;2022-08-14T03:57:55;101095.09;;;26.18
67509;BMP280;54354;44.724;11.284;2022-08-14T04:00:21;101092.94;;;26.17
67509;BMP280;54354;44.724;11.284;2022-08-14T04:02:46;101097.41;;;26.14
67509;BMP280;54354;44.724;11.284;2022-08-14T04:05:12;101096.66;;;26.14
67509;BMP280;54354;44.724;11.284;2022-08-14T04:07:39;101098.66;;;26.13
67509;BMP280;54354;44.724;11.284;2022-08-14T04:10:05;101096.41;;;26.11
67509;BMP280;54354;44.724;11.284;2022-08-14T04:12:31;101103.13;;;26.10
67509;BMP280;54354;44.724;11.284;2022-08-14T04:14:58;101114.25;;;26.07
67509;BMP280;54354;44.724;11.284;2022-08-14T04:17:23;101102.41;;;26.04
67509;BMP280;54354;44.724;11.284;2022-08-14T04:19:50;101102.19;;;26.02
67509;BMP280;54354;44.724;11.284;2022-08-14T04:22:16;101101.72;;;26.04
67509;BMP280;54354;44.724;11.284;2022-08-14T04:24:42;101093.75;;;26.06
67509;BMP280;54354;44.724;11.284;2022-08-14T04:27:09;101089.84;;;26.07
67509;BMP280;54354;44.724;11.284;2022-08-14T04:29:37;101083.66;;;26.06
67509;BMP280;54354;44.724;11.284;2022-08-14T04:32:05;101092.97;;;26.11
67509;BMP280;54354;44.724;11.284;2022-08-14T04:34:33;101082.84;;;26.11
67509;BMP280;54354;44.724;11.284;2022-08-14T04:37:00;101075.69;;;26.14
67509;BMP280;54354;44.724;11.284;2022-08-14T04:39:44;101092.19;;;26.16
67509;BMP280;54354;44.724;11.284;2022-08-14T04:42:28;101083.50;;;26.18
67509;BMP280;54354;44.724;11.284;2022-08-14T04:45:12;101088.44;;;26.19
67509;BMP280;54354;44.724;11.284;2022-08-14T04:47:39;101088.22;;;26.17
67509;BMP280;54354;44.724;11.284;2022-08-14T04:50:28;101085.44;;;26.23
67509;BMP280;54354;44.724;11.284;2022-08-14T04:52:53;101079.28;;;26.22
67509;BMP280;54354;44.724;11.284;2022-08-14T04:55:19;101077.53;;;26.25
67509;BMP280;54354;44.724;11.284;2022-08-14T04:57:44;101073.78;;;26.28
67509;BMP280;54354;44.724;11.284;2022-08-14T05:00:11;101067.63;;;26.27
67509;BMP280;54354;44.724;11.284;2022-08-14T05:02:37;101059.19;;;26.31
67509;BMP280;54354;44.724;11.284;2022-08-14T05:05:02;101077.19;;;26.34
67509;BMP280;54354;44.724;11.284;2022-08-14T05:07:28;101073.19;;;26.35
67509;BMP280;54354;44.724;11.284;2022-08-14T05:09:53;101070.00;;;26.36
67509;BMP280;54354;44.724;11.284;2022-08-14T05:12:19;101072.16;;;26.38
67509;BMP280;54354;44.724;11.284;2022-08-14T05:14:44;101074.41;;;26.39
67509;BMP280;54354;44.724;11.284;2022-08-14T05:17:11;101065.50;;;26.39
67509;BMP280;54354;44.724;11.284;2022-08-14T05:19:37;101076.09;;;26.42
67509;BMP280;54354;44.724;11.284;2022-08-14T05:22:02;101077.97;;;26.48
67509;BMP280;54354;44.724;11.284;2022-08-14T05:24:28;101092.22;;;26.54
67509;BMP280;54354;44.724;11.284;2022-08-14T05:26:55;101084.31;;;26.56
67509;BMP280;54354;44.724;11.284;2022-08-14T05:29:21;101078.56;;;26.59
67509;BMP280;54354;44.724;11.284;2022-08-14T05:31:46;101081.75;;;26.63
67509;BMP280;54354;44.724;11.284;2022-08-14T05:34:12;101072.56;;;26.66
67509;BMP280;54354;44.724;11.284;2022-08-14T05:36:37;101075.22;;;26.72
67509;BMP280;54354;44.724;11.284;2022-08-14T05:39:04;101076.69;;;26.73
67509;BMP280;54354;44.724;11.284;2022-08-14T05:41:29;101089.22;;;26.76
67509;BMP280;54354;44.724;11.284;2022-08-14T05:43:57;101089.44;;;26.78
67509;BMP280;54354;44.724;11.284;2022-08-14T05:46:23;101094.03;;;26.83
67509;BMP280;54354;44.724;11.284;2022-08-14T05:48:53;101091.31;;;26.83
67509;BMP280;54354;44.724;11.284;2022-08-14T05:51:20;101086.88;;;26.86
67509;BMP280;54354;44.724;11.284;2022-08-14T05:53:46;101094.94;;;26.91
67509;BMP280;54354;44.724;11.284;2022-08-14T05:56:11;101095.38;;;26.95
67509;BMP280;54354;44.724;11.284;2022-08-14T05:58:37;101095.78;;;26.99
67509;BMP280;54354;44.724;11.284;2022-08-14T06:01:03;101081.69;;;27.01
67509;BMP280;54354;44.724;11.284;2022-08-14T06:03:29;101076.47;;;27.03
67509;BMP280;54354;44.724;11.284;2022-08-14T06:05:55;101070.50;;;27.04
67509;BMP280;54354;44.724;11.284;2022-08-14T06:08:26;101061.63;;;27.04
67509;BMP280;54354;44.724;11.284;2022-08-14T06:10:54;101070.41;;;27.10
67509;BMP280;54354;44.724;11.284;2022-08-14T06:13:19;101069.38;;;27.13
67509;BMP280;54354;44.724;11.284;2022-08-14T06:15:46;101058.97;;;27.17
67509;BMP280;54354;44.724;11.284;2022-08-14T06:18:14;101048.00;;;27.23
67509;BMP280;54354;44.724;11.284;2022-08-14T06:20:39;101050.81;;;27.30
67509;BMP280;54354;44.724;11.284;2022-08-14T06:23:05;101055.84;;;27.40
67509;BMP280;54354;44.724;11.284;2022-08-14T06:25:31;101054.28;;;27.44
67509;BMP280;54354;44.724;11.284;2022-08-14T06:27:57;101054.41;;;27.52
67509;BMP280;54354;44.724;11.284;2022-08-14T06:30:26;101041.00;;;27.54
67509;BMP280;54354;44.724;11.284;2022-08-14T06:32:52;101055.88;;;27.66
67509;BMP280;54354;44.724;11.284;2022-08-14T06:35:17;101052.53;;;27.73
67509;BMP280;54354;44.724;11.284;2022-08-14T06:37:45;101065.19;;;27.84
67509;BMP280;54354;44.724;11.284;2022-08-14T06:40:13;101050.97;;;27.91
67509;BMP280;54354;44.724;11.284;2022-08-14T06:42:41;101074.69;;;28.04
67509;BMP280;54354;44.724;11.284;2022-08-14T06:45:07;101073.31;;;28.23
67509;BMP280;54354;44.724;11.284;2022-08-14T06:47:38;101075.47;;;28.38
67509;BMP280;54354;44.724;11.284;2022-08-14T06:50:07;101082.09;;;28.63
67509;BMP280;54354;44.724;11.284;2022-08-14T06:52:34;101083.66;;;28.93
67509;BMP280;54354;44.724;11.284;2022-08-14T06:55:00;101073.13;;;29.18
67509;BMP280;54354;44.724;11.284;2022-08-14T06:57:34;101075.13;;;29.46
67509;BMP280;54354;44.724;11.284;2022-08-14T07:00:00;101078.22;;;29.78
67509;BMP280;54354;44.724;11.284;2022-08-14T07:02:26;101068.16;;;30.09
67509;BMP280;54354;44.724;11.284;2022-08-14T07:05:10;101060.75;;;30.40
67509;BMP280;54354;44.724;11.284;2022-08-14T07:07:58;101066.81;;;30.69
67509;BMP280;54354;44.724;11.284;2022-08-14T07:10:24;101075.00;;;30.92
67509;BMP280;54354;44.724;11.284;2022-08-14T07:12:50;101081.19;;;31.15
67509;BMP280;54354;44.724;11.284;2022-08-14T07:15:15;101075.50;;;31.36
67509;BMP280;54354;44.724;11.284;2022-08-14T07:17:48;101060.31;;;31.50
67509;BMP280;54354;44.724;11.284;2022-08-14T07:20:15;101055.09;;;31.70
67509;BMP280;54354;44.724;11.284;2022-08-14T07:22:45;101054.16;;;32.15
67509;BMP280;54354;44.724;11.284;2022-08-14T07:25:10;101059.31;;;32.03
67509;BMP280;54354;44.724;11.284;2022-08-14T07:27:38;101063.53;;;32.04
67509;BMP280;54354;44.724;11.284;2022-08-14T07:30:04;101066.00;;;32.17
67509;BMP280;54354;44.724;11.284;2022-08-14T07:32:30;101059.50;;;32.30
67509;BMP280;54354;44.724;11.284;2022-08-14T07:34:56;101064.72;;;32.43
67509;BMP280;54354;44.724;11.284;2022-08-14T07:37:21;101061.91;;;32.51
67509;BMP280;54354;44.724;11.284;2022-08-14T07:39:47;101069.38;;;32.58
67509;BMP280;54354;44.724;11.284;2022-08-14T07:42:12;101064.53;;;32.66
67509;BMP280;54354;44.724;11.284;2022-08-14T07:44:38;101068.50;;;32.73
67509;BMP280;54354;44.724;11.284;2022-08-14T07:47:03;101070.13;;;32.76
67509;BMP280;54354;44.724;11.284;2022-08-14T07:49:31;101070.13;;;32.76
67509;BMP280;54354;44.724;11.284;2022-08-14T07:51:56;101080.13;;;32.81
67509;BMP280;54354;44.724;11.284;2022-08-14T07:54:22;101076.13;;;32.82
67509;BMP280;54354;44.724;11.284;2022-08-14T07:56:47;101081.75;;;32.84
67509;BMP280;54354;44.724;11.284;2022-08-14T07:59:13;101079.53;;;32.90
67509;BMP280;54354;44.724;11.284;2022-08-14T08:01:41;101062.31;;;32.89
67509;BMP280;54354;44.724;11.284;2022-08-14T08:04:07;101066.19;;;32.86
67509;BMP280;54354;44.724;11.284;2022-08-14T08:06:33;101072.94;;;32.85
67509;BMP280;54354;44.724;11.284;2022-08-14T08:09:00;101064.41;;;32.81
67509;BMP280;54354;44.724;11.284;2022-08-14T08:11:27;101070.94;;;32.86
67509;BMP280;54354;44.724;11.284;2022-08-14T08:13:54;101076.78;;;32.90
67509;BMP280;54354;44.724;11.284;2022-08-14T08:16:23;101075.81;;;32.95
67509;BMP280;54354;44.724;11.284;2022-08-14T08:18:49;101074.34;;;32.94
67509;BMP280;54354;44.724;11.284;2022-08-14T08:21:15;101077.09;;;32.94
67509;BMP280;54354;44.724;11.284;2022-08-14T08:23:40;101075.91;;;32.87
67509;BMP280;54354;44.724;11.284;2022-08-14T08:26:06;101077.25;;;32.79
67509;BMP280;54354;44.724;11.284;2022-08-14T08:28:31;101084.63;;;32.69
67509;BMP280;54354;44.724;11.284;2022-08-14T08:31:01;101077.91;;;32.62
67509;BMP280;54354;44.724;11.284;2022-08-14T08:33:29;101073.66;;;32.69
67509;BMP280;54354;44.724;11.284;2022-08-14T08:36:04;101084.28;;;32.64
67509;BMP280;54354;44.724;11.284;2022-08-14T08:38:31;101086.31;;;32.64
67509;BMP280;54354;44.724;11.284;2022-08-14T08:40:59;101072.50;;;32.54
67509;BMP280;54354;44.724;11.284;2022-08-14T08:43:31;101074.91;;;32.50
67509;BMP280;54354;44.724;11.284;2022-08-14T08:48:50;101072.09;;;32.33
67509;BMP280;54354;44.724;11.284;2022-08-14T08:51:26;101069.03;;;32.29
67509;BMP280;54354;44.724;11.284;2022-08-14T08:56:52;101068.84;;;32.27
67509;BMP280;54354;44.724;11.284;2022-08-14T08:59:22;101064.69;;;32.26
67509;BMP280;54354;44.724;11.284;2022-08-14T09:01:55;101068.41;;;32.63
67509;BMP280;54354;44.724;11.284;2022-08-14T09:04:27;101069.53;;;32.35
67509;BMP280;54354;44.724;11.284;2022-08-14T09:06:53;101069.22;;;32.31
67509;BMP280;54354;44.724;11.284;2022-08-14T09:09:27;101062.47;;;32.24
67509;BMP280;54354;44.724;11.284;2022-08-14T09:11:55;101061.97;;;32.18
67509;BMP280;54354;44.724;11.284;2022-08-14T09:14:25;101056.06;;;32.05
67509;BMP280;54354;44.724;11.284;2022-08-14T09:16:55;101060.63;;;32.02
67509;BMP280;54354;44.724;11.284;2022-08-14T09:19:21;101065.38;;;32.02
67509;BMP280;54354;44.724;11.284;2022-08-14T09:21:47;101064.97;;;32.05
67509;BMP280;54354;44.724;11.284;2022-08-14T09:24:13;101067.16;;;32.07
67509;BMP280;54354;44.724;11.284;2022-08-14T09:26:39;101054.41;;;32.02
67509;BMP280;54354;44.724;11.284;2022-08-14T09:29:08;101056.66;;;31.95
67509;BMP280;54354;44.724;11.284;2022-08-14T09:31:36;101050.44;;;31.95
67509;BMP280;54354;44.724;11.284;2022-08-14T09:34:26;101056.06;;;31.97
67509;BMP280;54354;44.724;11.284;2022-08-14T09:37:22;101046.59;;;31.98
67509;BMP280;54354;44.724;11.284;2022-08-14T09:40:07;101038.94;;;31.97
67509;BMP280;54354;44.724;11.284;2022-08-14T10:09:19;101008.22;;;31.98
67509;BMP280;54354;44.724;11.284;2022-08-14T10:11:57;101006.38;;;32.01
67509;BMP280;54354;44.724;11.284;2022-08-14T10:14:27;101008.34;;;32.08
67509;BMP280;54354;44.724;11.284;2022-08-14T10:16:55;101013.25;;;32.09
67509;BMP280;54354;44.724;11.284;2022-08-14T10:19:23;101007.44;;;32.05
67509;BMP280;54354;44.724;11.284;2022-08-14T10:22:04;100998.16;;;32.01
67509;BMP280;54354;44.724;11.284;2022-08-14T10:24:42;100997.63;;;31.94
67509;BMP280;54354;44.724;11.284;2022-08-14T10:27:24;101001.69;;;31.86
67509;BMP280;54354;44.724;11.284;2022-08-14T10:29:58;100992.22;;;31.87
67509;BMP280;54354;44.724;11.284;2022-08-14T10:32:28;101003.69;;;31.93
67509;BMP280;54354;44.724;11.284;2022-08-14T10:35:05;100989.81;;;31.91
67509;BMP280;54354;44.724;11.284;2022-08-14T10:37:40;100977.59;;;31.92
67509;BMP280;54354;44.724;11.284;2022-08-14T10:40:07;100985.72;;;32.00
67509;BMP280;54354;44.724;11.284;2022-08-14T10:42:35;100974.25;;;32.01
67509;BMP280;54354;44.724;11.284;2022-08-14T10:45:02;100974.38;;;32.03
67509;BMP280;54354;44.724;11.284;2022-08-14T10:47:34;100963.66;;;31.98
67509;BMP280;54354;44.724;11.284;2022-08-14T10:50:04;100967.66;;;32.04
67509;BMP280;54354;44.724;11.284;2022-08-14T10:52:32;100960.31;;;32.07
67509;BMP280;54354;44.724;11.284;2022-08-14T10:55:10;100954.09;;;32.06
67509;BMP280;54354;44.724;11.284;2022-08-14T10:57:50;100943.09;;;32.14
67509;BMP280;54354;44.724;11.284;2022-08-14T11:00:19;100950.00;;;32.15
67509;BMP280;54354;44.724;11.284;2022-08-14T11:03:02;100956.94;;;32.16
67509;BMP280;54354;44.724;11.284;2022-08-14T11:05:42;100961.06;;;32.07
67509;BMP280;54354;44.724;11.284;2022-08-14T11:08:10;100950.09;;;32.07
67509;BMP280;54354;44.724;11.284;2022-08-14T11:10:48;100947.63;;;31.94
67509;BMP280;54354;44.724;11.284;2022-08-14T11:13:19;100953.31;;;31.88
67509;BMP280;54354;44.724;11.284;2022-08-14T11:15:48;100950.91;;;31.92
67509;BMP280;54354;44.724;11.284;2022-08-14T11:18:15;100940.63;;;32.01
67509;BMP280;54354;44.724;11.284;2022-08-14T11:20:50;100934.91;;;32.06
67509;BMP280;54354;44.724;11.284;2022-08-14T11:23:28;100938.56;;;32.09
67509;BMP280;54354;44.724;11.284;2022-08-14T11:25:56;100928.81;;;32.15
67509;BMP280;54354;44.724;11.284;2022-08-14T11:28:25;100925.91;;;32.13
67509;BMP280;54354;44.724;11.284;2022-08-14T11:30:52;100929.06;;;32.10
67509;BMP280;54354;44.724;11.284;2022-08-14T11:33:28;100926.47;;;32.12
67509;BMP280;54354;44.724;11.284;2022-08-14T11:35:56;100923.69;;;32.19
67509;BMP280;54354;44.724;11.284;2022-08-14T11:38:35;100926.19;;;32.25
67509;BMP280;54354;44.724;11.284;2022-08-14T11:41:01;100921.44;;;32.25
67509;BMP280;54354;44.724;11.284;2022-08-14T11:43:26;100927.66;;;32.26
67509;BMP280;54354;44.724;11.284;2022-08-14T11:45:52;100918.75;;;32.18
67509;BMP280;54354;44.724;11.284;2022-08-14T11:48:21;100931.22;;;32.11
67509;BMP280;54354;44.724;11.284;2022-08-14T11:50:47;100921.16;;;32.14
67509;BMP280;54354;44.724;11.284;2022-08-14T11:53:28;100915.47;;;32.19
67509;BMP280;54354;44.724;11.284;2022-08-14T11:56:01;100922.56;;;32.22
67509;BMP280;54354;44.724;11.284;2022-08-14T11:58:28;100920.22;;;32.19
67509;BMP280;54354;44.724;11.284;2022-08-14T12:01:04;100914.78;;;32.11
67509;BMP280;54354;44.724;11.284;2022-08-14T12:03:42;100907.38;;;32.04
67509;BMP280;54354;44.724;11.284;2022-08-14T12:06:16;100897.91;;;31.98
67509;BMP280;54354;44.724;11.284;2022-08-14T12:08:42;100905.38;;;32.05
67509;BMP280;54354;44.724;11.284;2022-08-14T12:11:10;100896.00;;;32.08
67509;BMP280;54354;44.724;11.284;2022-08-14T12:13:40;100898.69;;;32.15
67509;BMP280;54354;44.724;11.284;2022-08-14T12:16:08;100900.69;;;32.15
67509;BMP280;54354;44.724;11.284;2022-08-14T12:18:40;100896.50;;;32.14
67509;BMP280;54354;44.724;11.284;2022-08-14T12:21:22;100884.59;;;32.19
67509;BMP280;54354;44.724;11.284;2022-08-14T12:24:08;100881.22;;;32.28
67509;BMP280;54354;44.724;11.284;2022-08-14T12:26:35;100882.47;;;32.27
67509;BMP280;54354;44.724;11.284;2022-08-14T12:29:12;100879.59;;;32.25
67509;BMP280;54354;44.724;11.284;2022-08-14T12:31:39;100877.72;;;32.27
67509;BMP280;54354;44.724;11.284;2022-08-14T12:34:08;100865.81;;;32.33
67509;BMP280;54354;44.724;11.284;2022-08-14T12:36:34;100874.69;;;32.41
67509;BMP280;54354;44.724;11.284;2022-08-14T12:39:06;100874.84;;;32.43
67509;BMP280;54354;44.724;11.284;2022-08-14T12:41:48;100850.97;;;32.36
67509;BMP280;54354;44.724;11.284;2022-08-14T12:44:28;100859.59;;;32.32
67509;BMP280;54354;44.724;11.284;2022-08-14T12:47:24;100858.72;;;32.29
67509;BMP280;54354;44.724;11.284;2022-08-14T12:49:52;100841.50;;;32.37
67509;BMP280;54354;44.724;11.284;2022-08-14T12:52:38;100842.69;;;32.43
67509;BMP280;54354;44.724;11.284;2022-08-14T12:55:10;100847.44;;;32.43
67509;BMP280;54354;44.724;11.284;2022-08-14T12:57:41;100841.38;;;32.44
67509;BMP280;54354;44.724;11.284;2022-08-14T13:02:38;100840.75;;;32.36
67509;BMP280;54354;44.724;11.284;2022-08-14T13:05:05;100838.09;;;32.28
67509;BMP280;54354;44.724;11.284;2022-08-14T13:07:31;100830.03;;;32.31
67509;BMP280;54354;44.724;11.284;2022-08-14T13:09:57;100830.03;;;32.31
67509;BMP280;54354;44.724;11.284;2022-08-14T13:12:23;100819.28;;;32.42
67509;BMP280;54354;44.724;11.284;2022-08-14T13:14:56;100810.25;;;32.49
67509;BMP280;54354;44.724;11.284;2022-08-14T13:17:24;100818.09;;;32.53
67509;BMP280;54354;44.724;11.284;2022-08-14T13:19:54;100807.94;;;32.46
67509;BMP280;54354;44.724;11.284;2022-08-14T13:22:24;100805.75;;;32.44
67509;BMP280;54354;44.724;11.284;2022-08-14T13:24:53;100791.25;;;32.34
67509;BMP280;54354;44.724;11.284;2022-08-14T13:27:23;100783.56;;;32.33
67509;BMP280;54354;44.724;11.284;2022-08-14T13:29:56;100773.25;;;32.41
67509;BMP280;54354;44.724;11.284;2022-08-14T13:32:24;100778.63;;;32.48
67509;BMP280;54354;44.724;11.284;2022-08-14T13:34:51;100778.00;;;32.57
67509;BMP280;54354;44.724;11.284;2022-08-14T13:37:17;100773.34;;;32.50
67509;BMP280;54354;44.724;11.284;2022-08-14T13:39:53;100772.63;;;32.33
67509;BMP280;54354;44.724;11.284;2022-08-14T13:42:20;100771.88;;;32.32
67509;BMP280;54354;44.724;11.284;2022-08-14T13:44:50;100770.94;;;32.37
67509;BMP280;54354;44.724;11.284;2022-08-14T13:47:17;100769.72;;;32.48
67509;BMP280;54354;44.724;11.284;2022-08-14T13:49:45;100766.09;;;32.45
67509;BMP280;54354;44.724;11.284;2022-08-14T13:52:15;100765.34;;;32.45
67509;BMP280;54354;44.724;11.284;2022-08-14T13:54:44;100762.06;;;32.46
67509;BMP280;54354;44.724;11.284;2022-08-14T13:57:12;100764.38;;;32.50
67509;BMP280;54354;44.724;11.284;2022-08-14T13:59:43;100765.69;;;32.49
67509;BMP280;54354;44.724;11.284;2022-08-14T14:02:08;100760.66;;;32.55
67509;BMP280;54354;44.724;11.284;2022-08-14T14:04:41;100755.31;;;32.57
67509;BMP280;54354;44.724;11.284;2022-08-14T14:07:09;100745.97;;;32.60
67509;BMP280;54354;44.724;11.284;2022-08-14T14:09:42;100747.97;;;32.59
67509;BMP280;54354;44.724;11.284;2022-08-14T14:12:08;100749.13;;;32.56
67509;BMP280;54354;44.724;11.284;2022-08-14T14:14:36;100738.59;;;32.53
67509;BMP280;54354;44.724;11.284;2022-08-14T14:17:05;100737.13;;;32.52
67509;BMP280;54354;44.724;11.284;2022-08-14T14:19:31;100733.47;;;32.40
67509;BMP280;54354;44.724;11.284;2022-08-14T14:22:00;100729.25;;;32.39
67509;BMP280;54354;44.724;11.284;2022-08-14T14:24:32;100716.53;;;32.34
67509;BMP280;54354;44.724;11.284;2022-08-14T14:27:00;100712.47;;;32.35
67509;BMP280;54354;44.724;11.284;2022-08-14T14:29:29;100706.91;;;32.42